メインページ
METAR-TAF:

METAR-TAF

空港 :

サントス・ドゥモン空港

リオデジャネイロ, リオデジャネイロ州, ブラジル

緯度: 22-54S, 経度: 043-10W, 海抜: 3m

現時点の気象観測

当レポートは1時間4分前の23:00(UTC)に作成
南/南西の風 3kt
気温 22°C
湿度 83%
気圧 1019 hPa
視程10km以上
1,500メートル以下は雲なし、積乱雲なし

METAR: SBRJ 212300Z 20003KT CAVOK 22/19 Q1019

時間: 21:04 (00:04 UTC)

予報

当レポートは9時間4分前の15:00(UTC)に作成
予報は21日の 18時(UTC)から 22日の 06時(UTC)まで有効
の風 12kt
視程10km以上
1,500メートル以下は雲なし、積乱雲なし
22日の 01時(UTC)から 22日の 03時(UTC)まで徐々に
の風 6kt

TAF: SBRJ 211500Z 2118/2206 18012KT CAVOK TX26/2118Z TN20/2205Z BECMG 2201/2203 36006KT RMK PGX

4,000以上の空港の気象観測と天気予報(METAR報とTAF報)

利用可能な観測所は地図上に黄色い丸と赤い丸で示す。

丸の上にカーソルを重ねると観測所名を参照できる。

次にクリックすると気象観測と天気予報を参照できる。

マップの切り替え:黒色「×」印の緑ボタンをクリックして拡大、「-」印の緑ボタンをクリックして縮小、緑色の三角印をクリックして隣りの地図に切り替え


METAR-TAF: